Time;durP1;ratioP1;P1;durP2;ratioP2;P2;SDS_P1;SDS_P2;PMS_P1;PMS_P2;Temp;Humidity;BMP_temperature;BMP_pressure;BME280_temperature;BME280_humidity;BME280_pressure;Samples;Min_cycle;Max_cycle;Signal;HPM_P1;HPM_P2
2024/04/20 00:01:53;;;;;;;31.73;6.50;;;;;;;13.79;100.00;97064.00;5333637;26;20015;-59
2024/04/20 00:04:18;;;;;;;42.47;7.18;;;;;;;13.92;100.00;97064.50;5338442;26;20342;-59
2024/04/20 00:06:45;;;;;;;78.22;9.15;;;;;;;13.82;100.00;97071.75;5341666;26;20005;-62
2024/04/20 00:09:10;;;;;;;35.72;7.15;;;;;;;13.78;100.00;97065.75;5341378;26;20414;-61
2024/04/20 00:11:36;;;;;;;70.00;8.45;;;;;;;13.17;100.00;97065.81;5330462;26;20012;-59
2024/04/20 00:14:01;;;;;;;30.50;5.97;;;;;;;14.14;100.00;97058.56;5336902;26;20075;-63
2024/04/20 00:16:26;;;;;;;32.03;6.10;;;;;;;14.43;100.00;97067.19;5334549;26;20004;-64
2024/04/20 00:18:52;;;;;;;35.95;6.43;;;;;;;14.41;100.00;97072.47;5363639;26;20728;-62
2024/04/20 00:21:17;;;;;;;71.10;8.52;;;;;;;15.20;100.00;97068.03;5338350;26;20441;-61
2024/04/20 00:23:42;;;;;;;63.78;7.72;;;;;;;14.30;100.00;97064.13;5335669;26;19997;-62
2024/04/20 00:26:08;;;;;;;43.50;6.57;;;;;;;15.42;100.00;97062.84;5338813;26;20012;-60
2024/04/20 00:28:33;;;;;;;78.60;8.90;;;;;;;14.00;100.00;97078.16;5339989;26;20011;-62
2024/04/20 00:30:59;;;;;;;39.22;7.07;;;;;;;15.43;100.00;97074.16;5336787;26;20004;-58
2024/04/20 00:33:25;;;;;;;26.55;5.30;;;;;;;14.90;100.00;97078.72;5341320;26;19997;-60
2024/04/20 00:35:50;;;;;;;34.88;6.25;;;;;;;15.08;100.00;97070.19;5340276;26;20038;-62
2024/04/20 00:38:16;;;;;;;51.10;8.07;;;;;;;14.21;100.00;97080.13;5340260;26;19997;-62
2024/04/20 00:40:42;;;;;;;53.55;8.13;;;;;;;14.67;100.00;97075.13;5369992;26;20427;-60
2024/04/20 00:43:15;;;;;;;48.25;7.38;;;;;;;15.15;100.00;97077.84;5335640;26;20669;-63
2024/04/20 00:45:41;;;;;;;60.72;8.68;;;;;;;13.89;100.00;97085.50;5338291;26;20001;-63
2024/04/20 00:48:07;;;;;;;41.25;7.30;;;;;;;14.35;100.00;97079.66;5341860;26;20012;-63
2024/04/20 00:50:34;;;;;;;51.65;8.25;;;;;;;14.27;100.00;97080.78;5334549;26;19997;-62
2024/04/20 00:53:00;;;;;;;29.45;7.13;;;;;;;13.98;100.00;97085.19;5341773;26;20364;-61
2024/04/20 00:55:28;;;;;;;28.50;6.88;;;;;;;14.75;100.00;97078.31;5339519;26;20473;-61
2024/04/20 00:57:57;;;;;;;34.88;7.22;;;;;;;14.59;100.00;97085.84;5334875;26;20843;-63
2024/04/20 01:00:23;;;;;;;36.00;7.85;;;;;;;13.96;100.00;97084.41;5336191;26;20005;-61
2024/04/20 01:02:49;;;;;;;45.13;7.63;;;;;;;14.38;100.00;97090.91;5336406;26;20945;-62
2024/04/20 01:05:17;;;;;;;41.22;6.97;;;;;;;14.44;100.00;97088.06;5336935;26;20021;-61
2024/04/20 01:07:43;;;;;;;47.55;7.47;;;;;;;13.48;100.00;97093.69;5335622;26;20001;-60
2024/04/20 01:10:08;;;;;;;32.90;6.22;;;;;;;14.54;100.00;97093.84;5336765;26;20004;-63
2024/04/20 01:12:35;;;;;;;62.53;8.20;;;;;;;14.04;100.00;97095.44;5332814;26;20001;-62
2024/04/20 01:15:01;;;;;;;32.40;7.53;;;;;;;14.86;100.00;97093.69;5339260;26;20472;-60
2024/04/20 01:17:27;;;;;;;26.98;7.40;;;;;;;15.83;100.00;97095.38;5338208;26;20011;-60
2024/04/20 01:19:52;;;;;;;33.00;7.90;;;;;;;14.66;100.00;97097.78;5334981;26;20570;-60
2024/04/20 01:22:18;;;;;;;36.92;10.07;;;;;;;15.30;100.00;97090.38;5339708;26;20041;-63
2024/04/20 01:24:45;;;;;;;61.55;9.15;;;;;;;16.07;100.00;97098.00;5336793;26;20019;-64
2024/04/20 01:27:10;;;;;;;49.78;8.93;;;;;;;15.31;100.00;97102.56;5335101;26;20023;-60
2024/04/20 01:29:35;;;;;;;63.47;9.18;;;;;;;14.32;100.00;97101.53;5340838;26;20008;-59
2024/04/20 01:32:01;;;;;;;27.77;7.05;;;;;;;14.16;100.00;97112.53;5339999;26;20445;-60
2024/04/20 01:34:26;;;;;;;38.70;8.27;;;;;;;13.95;100.00;97105.34;5336529;26;20420;-59
2024/04/20 01:36:52;;;;;;;34.60;7.47;;;;;;;15.27;100.00;97105.34;5337946;26;20477;-61
2024/04/20 01:39:17;;;;;;;29.20;7.15;;;;;;;14.31;100.00;97111.16;5335625;26;20793;-62
2024/04/20 01:41:42;;;;;;;62.53;9.63;;;;;;;14.30;100.00;97121.69;5336776;26;20000;-59
2024/04/20 01:44:08;;;;;;;38.85;7.47;;;;;;;14.22;100.00;97131.53;5334677;26;20016;-59
2024/04/20 01:46:33;;;;;;;40.25;7.90;;;;;;;14.01;100.00;97137.38;5336984;26;20001;-60
2024/04/20 01:49:02;;;;;;;28.67;6.50;;;;;;;14.24;100.00;97129.69;5338515;26;19997;-62
2024/04/20 01:51:27;;;;;;;28.88;6.68;;;;;;;14.50;100.00;97128.88;5339518;26;20048;-64
2024/04/20 01:53:52;;;;;;;29.38;6.85;;;;;;;15.27;100.00;97128.91;5336478;26;20023;-59
2024/04/20 01:56:18;;;;;;;38.20;7.72;;;;;;;13.75;100.00;97141.66;5340063;26;20816;-61
2024/04/20 01:58:43;;;;;;;69.10;9.60;;;;;;;13.98;100.00;97139.22;5337438;26;20032;-63
2024/04/20 02:01:08;;;;;;;64.18;10.05;;;;;;;13.49;100.00;97143.28;5337247;26;20091;-61
2024/04/20 02:03:34;;;;;;;35.40;6.60;;;;;;;13.65;100.00;97151.50;5337198;26;20338;-61
2024/04/20 02:05:59;;;;;;;48.67;7.80;;;;;;;14.10;100.00;97151.09;5342061;26;20340;-60
2024/04/20 02:08:24;;;;;;;32.58;7.35;;;;;;;14.15;100.00;97146.56;5339703;26;20001;-61
2024/04/20 02:10:49;;;;;;;65.47;8.88;;;;;;;13.99;100.00;97154.88;5340254;26;20009;-61
2024/04/20 02:13:15;;;;;;;45.33;7.03;;;;;;;14.24;100.00;97161.97;5335055;26;20083;-59
2024/04/20 02:15:40;;;;;;;61.60;8.82;;;;;;;13.47;100.00;97163.31;5343051;26;20000;-62
2024/04/20 02:18:05;;;;;;;43.30;6.63;;;;;;;13.89;100.00;97169.13;5340255;26;20001;-61
2024/04/20 02:20:31;;;;;;;46.00;7.53;;;;;;;13.95;100.00;97171.53;5339836;26;20001;-61
2024/04/20 02:22:56;;;;;;;24.92;6.07;;;;;;;13.46;100.00;97171.19;5335287;26;20379;-61
2024/04/20 02:25:22;;;;;;;31.73;6.25;;;;;;;12.97;100.00;97177.72;5365771;26;20004;-60
2024/04/20 02:27:50;;;;;;;62.15;7.85;;;;;;;12.80;100.00;97172.09;5335370;26;20001;-60
2024/04/20 02:30:15;;;;;;;42.58;6.45;;;;;;;13.71;100.00;97176.63;5340842;26;20002;-61
2024/04/20 02:32:41;;;;;;;74.43;8.85;;;;;;;14.58;100.00;97187.03;5340722;26;20345;-60
2024/04/20 02:35:06;;;;;;;54.20;7.68;;;;;;;13.72;100.00;97182.69;5340745;26;20001;-60
2024/04/20 02:37:32;;;;;;;47.63;7.65;;;;;;;13.77;100.00;97191.25;5340959;26;20567;-63
2024/04/20 02:39:57;;;;;;;30.92;6.53;;;;;;;14.64;100.00;97192.97;5338768;26;20005;-63
2024/04/20 02:42:22;;;;;;;40.78;6.93;;;;;;;14.44;100.00;97199.72;5336166;26;20503;-63
2024/04/20 02:44:48;;;;;;;59.00;9.05;;;;;;;13.15;100.00;97199.84;5334806;26;20008;-61
2024/04/20 02:47:13;;;;;;;29.05;5.80;;;;;;;13.22;100.00;97199.69;5339861;26;20001;-59
2024/04/20 02:49:38;;;;;;;45.92;7.15;;;;;;;14.87;100.00;97192.25;5343514;26;19997;-61
2024/04/20 02:52:04;;;;;;;42.10;7.38;;;;;;;15.23;100.00;97202.34;5336517;26;20001;-59
2024/04/20 02:54:29;;;;;;;29.52;6.70;;;;;;;14.74;100.00;97196.16;5340610;26;19997;-59
2024/04/20 02:56:54;;;;;;;25.35;5.88;;;;;;;13.88;100.00;97206.63;5339059;26;20011;-59
2024/04/20 02:59:20;;;;;;;50.78;22.00;;;;;;;13.48;100.00;97201.63;5342136;26;20423;-59
2024/04/20 03:01:46;;;;;;;60.60;8.82;;;;;;;14.15;100.00;97215.38;5336735;26;20012;-59
2024/04/20 03:04:11;;;;;;;38.72;7.60;;;;;;;13.92;100.00;97206.47;5363261;26;20686;-59
2024/04/20 03:06:37;;;;;;;43.83;8.27;;;;;;;13.45;100.00;97211.28;5335522;26;20012;-59
2024/04/20 03:09:03;;;;;;;32.40;7.43;;;;;;;14.47;100.00;97217.06;5337810;26;19997;-58
2024/04/20 03:11:28;;;;;;;27.48;6.50;;;;;;;13.86;100.00;97218.88;5334807;26;20017;-59
2024/04/20 03:13:54;;;;;;;68.68;9.45;;;;;;;14.42;100.00;97214.59;5335339;26;20001;-59
2024/04/20 03:16:19;;;;;;;34.63;7.45;;;;;;;14.78;100.00;97214.31;5364742;26;20011;-61
2024/04/20 03:18:45;;;;;;;68.38;9.75;;;;;;;14.75;100.00;97224.03;5340694;26;20012;-60
2024/04/20 03:21:10;;;;;;;85.65;11.35;;;;;;;13.23;100.00;97228.38;5338842;26;20469;-62
2024/04/20 03:23:37;;;;;;;33.10;6.95;;;;;;;13.93;100.00;97226.47;5343259;26;20102;-62
2024/04/20 03:26:03;;;;;;;35.97;7.15;;;;;;;13.91;100.00;97238.75;5337098;26;19997;-58
2024/04/20 03:28:28;;;;;;;52.75;8.23;;;;;;;14.23;100.00;97240.44;5342385;26;20534;-60
2024/04/20 03:30:54;;;;;;;57.80;9.00;;;;;;;14.99;100.00;97243.31;5337922;26;20536;-61
2024/04/20 03:33:22;;;;;;;33.25;7.40;;;;;;;14.58;100.00;97239.38;5339426;26;20008;-59
2024/04/20 03:35:54;;;;;;;76.53;10.52;;;;;;;14.48;100.00;97248.44;5336984;26;20452;-60
2024/04/20 03:38:19;;;;;;;41.08;7.63;;;;;;;14.53;100.00;97254.38;5339519;26;20047;-62
2024/04/20 03:40:44;;;;;;;72.47;10.15;;;;;;;13.57;100.00;97268.44;5336595;26;20074;-61
2024/04/20 03:43:10;;;;;;;58.75;9.35;;;;;;;13.50;100.00;97256.44;5337129;26;20384;-63
2024/04/20 03:45:35;;;;;;;33.90;6.82;;;;;;;14.63;100.00;97260.16;5338557;26;20341;-62
2024/04/20 03:48:01;;;;;;;29.48;6.65;;;;;;;14.28;100.00;97262.09;5337670;26;20846;-63
2024/04/20 03:50:26;;;;;;;51.42;9.07;;;;;;;14.32;100.00;97268.94;5337741;26;20342;-60
2024/04/20 03:52:51;;;;;;;70.00;10.00;;;;;;;13.98;100.00;97267.31;5338237;26;20947;-61
2024/04/20 03:55:18;;;;;;;41.13;7.53;;;;;;;14.26;100.00;97269.97;5340730;26;20005;-61
2024/04/20 03:57:43;;;;;;;74.50;10.70;;;;;;;14.84;100.00;97276.97;5336072;26;20032;-59
2024/04/20 04:00:11;;;;;;;54.30;9.02;;;;;;;13.08;100.00;97284.47;5337216;26;20023;-64
2024/04/20 04:02:37;;;;;;;47.28;7.53;;;;;;;12.87;100.00;97281.47;5334828;26;20001;-60
2024/04/20 04:05:03;;;;;;;51.83;8.20;;;;;;;14.82;100.00;97283.16;5334826;26;20100;-58
2024/04/20 04:07:28;;;;;;;31.33;7.35;;;;;;;13.53;100.00;97287.72;5338688;26;20534;-61
2024/04/20 04:09:54;;;;;;;47.83;8.15;;;;;;;13.80;100.00;97291.34;5339206;26;20490;-59
2024/04/20 04:12:19;;;;;;;51.72;10.27;;;;;;;13.21;100.00;97297.22;5335451;26;20001;-58
2024/04/20 04:14:44;;;;;;;67.13;9.20;;;;;;;12.85;100.00;97309.34;5364846;26;20024;-61
2024/04/20 04:17:10;;;;;;;36.35;6.70;;;;;;;13.96;100.00;97306.59;5344036;26;20059;-59
2024/04/20 04:19:35;;;;;;;37.83;7.53;;;;;;;13.47;100.00;97308.75;5334992;26;20361;-58
2024/04/20 04:22:02;;;;;;;31.27;6.95;;;;;;;12.63;100.00;97312.44;5331622;26;20008;-58
2024/04/20 04:24:27;;;;;;;27.90;6.30;;;;;;;13.07;100.00;97319.28;5337348;26;20508;-58
2024/04/20 04:26:53;;;;;;;71.70;9.23;;;;;;;14.00;100.00;97320.44;5336639;26;20008;-62
2024/04/20 04:29:18;;;;;;;43.40;7.80;;;;;;;13.48;100.00;97327.00;5337873;26;20012;-58
2024/04/20 04:31:44;;;;;;;57.65;8.05;;;;;;;13.07;100.00;97337.53;5336231;26;20387;-61
2024/04/20 04:34:09;;;;;;;51.25;7.95;;;;;;;12.73;100.00;97338.34;5335574;26;20004;-58
2024/04/20 04:36:35;;;;;;;46.83;7.88;;;;;;;12.17;100.00;97343.00;5363835;26;19997;-60
2024/04/20 04:39:01;;;;;;;36.17;6.18;;;;;;;12.30;100.00;97348.81;5335371;26;20005;-58
2024/04/20 04:41:27;;;;;;;37.92;7.40;;;;;;;13.90;100.00;97343.34;5337095;26;20001;-62
2024/04/20 04:43:52;;;;;;;79.82;10.40;;;;;;;13.61;100.00;97356.28;5334478;26;20016;-61
2024/04/20 04:46:17;;;;;;;41.72;7.07;;;;;;;12.96;100.00;97355.22;5352984;26;20005;-62
2024/04/20 04:48:43;;;;;;;39.63;6.90;;;;;;;13.33;100.00;97351.72;5335464;26;20005;-59
2024/04/20 04:51:08;;;;;;;81.18;9.90;;;;;;;13.55;100.00;97359.06;5331196;26;20001;-59
2024/04/20 04:53:33;;;;;;;34.50;7.35;;;;;;;14.35;100.00;97360.41;5340980;26;20006;-61
2024/04/20 04:55:59;;;;;;;75.88;13.45;;;;;;;13.19;100.00;97361.66;5338079;26;20005;-60
2024/04/20 04:58:24;;;;;;;47.42;7.78;;;;;;;13.25;100.00;97366.75;5333109;26;20016;-62
2024/04/20 05:00:49;;;;;;;68.57;8.75;;;;;;;13.95;100.00;97370.22;5337960;26;20001;-58
2024/04/20 05:03:15;;;;;;;42.00;7.72;;;;;;;14.53;100.00;97374.72;5338463;26;20636;-62
2024/04/20 05:05:47;;;;;;;47.22;8.75;;;;;;;14.28;100.00;97374.56;5337428;26;20016;-58
2024/04/20 05:08:12;;;;;;;60.42;8.07;;;;;;;14.76;100.00;97374.91;5340170;26;20001;-58
2024/04/20 05:10:38;;;;;;;35.10;7.13;;;;;;;14.92;100.00;97378.81;5336696;26;20004;-58
2024/04/20 05:13:03;;;;;;;51.25;8.75;;;;;;;15.40;100.00;97379.06;5338459;26;20058;-57
2024/04/20 05:15:28;;;;;;;36.22;7.85;;;;;;;14.11;100.00;97386.34;5343145;26;20008;-60
2024/04/20 05:17:54;;;;;;;68.55;9.20;;;;;;;14.63;100.00;97387.53;5339240;26;20000;-59
2024/04/20 05:20:21;;;;;;;47.28;7.75;;;;;;;14.77;100.00;97393.22;5336555;26;20016;-58
2024/04/20 05:22:46;;;;;;;63.90;9.50;;;;;;;15.25;100.00;97385.66;5337719;26;20025;-61
2024/04/20 05:25:11;;;;;;;55.88;8.32;;;;;;;15.15;100.00;97399.97;5337636;26;20016;-61
2024/04/20 05:27:36;;;;;;;37.50;8.00;;;;;;;15.14;100.00;97406.13;5342202;26;20004;-57
2024/04/20 05:30:02;;;;;;;65.32;9.15;;;;;;;15.82;100.00;97400.44;5337543;26;20549;-59
2024/04/20 05:32:28;;;;;;;30.35;6.45;;;;;;;14.78;100.00;97401.97;5341856;26;20008;-59
2024/04/20 05:34:53;;;;;;;77.03;10.93;;;;;;;14.64;100.00;97405.81;5340824;26;20014;-60
2024/04/20 05:37:18;;;;;;;41.85;7.97;;;;;;;14.61;100.00;97405.03;5342743;26;20015;-60
2024/04/20 05:39:45;;;;;;;41.17;7.65;;;;;;;14.40;100.00;97423.06;5343496;26;20015;-61
2024/04/20 05:42:11;;;;;;;45.17;8.57;;;;;;;13.14;100.00;97429.66;5339682;26;19996;-59
2024/04/20 05:44:36;;;;;;;36.22;7.43;;;;;;;13.07;100.00;97439.34;5340526;26;20463;-59
2024/04/20 05:47:02;;;;;;;64.53;10.15;;;;;;;13.00;100.00;97441.25;5339581;26;20078;-58
2024/04/20 05:49:27;;;;;;;25.10;6.10;;;;;;;13.99;100.00;97442.44;5340165;26;20319;-60
2024/04/20 05:51:52;;;;;;;67.75;8.88;;;;;;;13.17;100.00;97449.63;5337019;26;20008;-60
2024/04/20 05:54:19;;;;;;;42.00;7.32;;;;;;;13.93;100.00;97451.28;5338255;26;20347;-58
2024/04/20 05:56:44;;;;;;;46.90;8.23;;;;;;;14.03;100.00;97458.91;5336232;26;20690;-62
2024/04/20 05:59:10;;;;;;;59.50;7.78;;;;;;;14.17;100.00;97459.41;5337899;26;20001;-60
2024/04/20 06:01:35;;;;;;;36.67;7.45;;;;;;;14.49;100.00;97466.41;5335172;26;20005;-59
2024/04/20 06:04:01;;;;;;;57.55;8.52;;;;;;;14.63;100.00;97455.56;5338284;26;20090;-60
2024/04/20 06:06:26;;;;;;;58.30;12.32;;;;;;;14.26;100.00;97471.38;5336349;26;20020;-61
2024/04/20 06:08:51;;;;;;;64.20;10.07;;;;;;;13.32;100.00;97480.59;5339408;26;20001;-61
2024/04/20 06:11:17;;;;;;;74.25;9.90;;;;;;;13.37;100.00;97486.56;5337680;26;20453;-59
2024/04/20 06:13:42;;;;;;;53.50;9.70;;;;;;;13.21;100.00;97487.81;5340285;26;20012;-60
2024/04/20 06:16:07;;;;;;;45.38;7.80;;;;;;;14.24;100.00;97493.22;5336496;26;20004;-59
2024/04/20 06:18:33;;;;;;;31.63;7.13;;;;;;;13.75;100.00;97497.06;5340934;26;20484;-63
2024/04/20 06:20:58;;;;;;;65.32;8.38;;;;;;;13.51;100.00;97495.91;5336596;26;20346;-60
2024/04/20 06:23:23;;;;;;;30.80;9.80;;;;;;;13.18;100.00;97503.56;5341179;26;20004;-63
2024/04/20 06:25:49;;;;;;;36.90;6.75;;;;;;;13.85;100.00;97507.28;5339318;26;20001;-59
2024/04/20 06:28:14;;;;;;;57.83;9.23;;;;;;;13.43;100.00;97513.47;5340615;26;20015;-62
2024/04/20 06:30:39;;;;;;;37.78;7.80;;;;;;;13.32;100.00;97511.94;5339106;26;20086;-61
2024/04/20 06:33:05;;;;;;;69.20;8.82;;;;;;;13.84;100.00;97513.41;5338827;26;20001;-62
2024/04/20 06:35:30;;;;;;;38.42;7.38;;;;;;;13.46;100.00;97529.03;5340346;26;20412;-62
2024/04/20 06:37:56;;;;;;;67.28;9.27;;;;;;;13.95;100.00;97524.47;5337557;26;20490;-65
2024/04/20 06:40:21;;;;;;;46.30;8.18;;;;;;;13.88;100.00;97525.53;5338386;26;20005;-60
2024/04/20 06:42:47;;;;;;;59.47;8.73;;;;;;;14.42;100.00;97525.91;5340581;26;20005;-60
2024/04/20 06:45:13;;;;;;;57.97;8.48;;;;;;;14.26;100.00;97525.44;5334092;26;20005;-62
2024/04/20 06:47:38;;;;;;;34.70;7.28;;;;;;;14.14;100.00;97527.47;5339758;26;20019;-63
2024/04/20 06:50:04;;;;;;;69.07;9.75;;;;;;;14.97;100.00;97531.41;5337590;26;19997;-61
2024/04/20 06:52:29;;;;;;;42.28;7.45;;;;;;;15.05;100.00;97533.81;5334120;26;20014;-63
2024/04/20 06:54:54;;;;;;;54.60;7.95;;;;;;;13.66;100.00;97550.38;5334335;26;20001;-59
2024/04/20 06:57:20;;;;;;;32.58;7.63;;;;;;;14.99;100.00;97543.63;5337166;26;20510;-60
2024/04/20 06:59:45;;;;;;;55.70;8.45;;;;;;;14.79;100.00;97552.88;5335540;26;20328;-60
2024/04/20 07:02:12;;;;;;;48.05;8.07;;;;;;;13.06;100.00;97562.97;5333394;26;20044;-59
2024/04/20 07:04:38;;;;;;;38.75;7.43;;;;;;;13.60;100.00;97565.34;5334605;26;19997;-59
2024/04/20 07:07:03;;;;;;;88.85;11.00;;;;;;;14.10;100.00;97565.06;5333526;26;20008;-58
2024/04/20 07:09:29;;;;;;;59.45;8.93;;;;;;;12.54;100.00;97568.28;5357334;26;20344;-63
2024/04/20 07:11:54;;;;;;;74.00;9.82;;;;;;;12.78;100.00;97579.19;5327221;26;20004;-63
2024/04/20 07:14:19;;;;;;;66.07;9.00;;;;;;;12.40;100.00;97585.94;5333715;26;20098;-63
2024/04/20 07:16:45;;;;;;;57.20;11.68;;;;;;;12.15;100.00;97586.34;5339858;26;20066;-62
2024/04/20 07:19:11;;;;;;;61.78;8.15;;;;;;;12.63;100.00;97593.38;5340309;26;20020;-60
2024/04/20 07:21:38;;;;;;;54.40;7.90;;;;;;;10.85;100.00;97595.84;5338267;26;20009;-60
2024/04/20 07:24:07;;;;;;;88.03;10.02;;;;;;;11.94;100.00;97590.97;5333328;26;20281;-59
2024/04/20 07:26:33;;;;;;;37.53;6.55;;;;;;;11.96;100.00;97595.28;5337008;26;20385;-59
2024/04/20 07:29:00;;;;;;;69.15;8.70;;;;;;;12.39;100.00;97600.72;5341587;26;20039;-60
2024/04/20 07:31:25;;;;;;;31.52;6.75;;;;;;;12.96;100.00;97604.03;5334135;26;20008;-59
2024/04/20 07:33:52;;;;;;;36.92;6.80;;;;;;;13.18;100.00;97611.44;5336927;26;20353;-60
2024/04/20 07:36:18;;;;;;;56.13;9.15;;;;;;;12.44;100.00;97611.94;5340655;26;20093;-62
2024/04/20 07:38:43;;;;;;;69.70;8.80;;;;;;;13.45;100.00;97621.38;5337959;26;20009;-65
2024/04/20 07:41:08;;;;;;;98.45;11.73;;;;;;;12.73;100.00;97622.75;5334108;26;20365;-60
2024/04/20 07:43:33;;;;;;;60.33;9.27;;;;;;;13.02;100.00;97634.38;5338640;26;20381;-62
2024/04/20 07:45:59;;;;;;;94.00;11.00;;;;;;;12.42;100.00;97626.75;5335740;26;20000;-63
2024/04/20 07:48:24;;;;;;;51.20;8.32;;;;;;;12.19;100.00;97635.81;5337859;26;20451;-62
2024/04/20 07:50:49;;;;;;;61.30;9.10;;;;;;;12.11;100.00;97635.91;5362677;26;20009;-59
2024/04/20 07:53:15;;;;;;;70.95;9.00;;;;;;;12.92;100.00;97645.91;5332942;26;20001;-63
2024/04/20 07:55:40;;;;;;;46.33;8.77;;;;;;;11.81;100.00;97642.41;5332289;26;20553;-60
2024/04/20 07:58:06;;;;;;;54.75;8.90;;;;;;;12.55;100.00;97653.47;5335654;26;20004;-62
2024/04/20 08:00:31;;;;;;;44.72;8.43;;;;;;;12.62;100.00;97657.72;5335967;26;20016;-59
2024/04/20 08:02:56;;;;;;;44.75;8.30;;;;;;;12.25;100.00;97658.31;5332899;26;20009;-60
2024/04/20 08:05:22;;;;;;;42.40;8.50;;;;;;;12.31;100.00;97657.34;5337001;26;20404;-63
2024/04/20 08:07:47;;;;;;;68.07;9.75;;;;;;;13.93;100.00;97667.44;5334346;26;20483;-63
2024/04/20 08:10:13;;;;;;;40.45;8.02;;;;;;;13.85;100.00;97667.56;5331787;26;20058;-59
2024/04/20 08:12:38;;;;;;;56.42;8.95;;;;;;;13.30;100.00;97667.81;5340950;26;19997;-60
2024/04/20 08:15:04;;;;;;;95.55;11.32;;;;;;;13.81;100.00;97671.19;5337132;26;20011;-62
2024/04/20 08:17:30;;;;;;;49.08;8.55;;;;;;;13.79;100.00;97665.13;5333022;26;20004;-60
2024/04/20 08:19:55;;;;;;;53.22;8.95;;;;;;;14.05;100.00;97681.97;5360735;26;20582;-60
2024/04/20 08:22:20;;;;;;;63.85;10.30;;;;;;;14.67;94.86;97671.81;5335892;26;20008;-60
2024/04/20 08:24:46;;;;;;;58.00;9.20;;;;;;;13.29;100.00;97684.38;5337866;26;20005;-59
2024/04/20 08:27:11;;;;;;;75.35;10.40;;;;;;;12.49;100.00;97690.09;5337161;26;20004;-62
2024/04/20 08:29:37;;;;;;;45.50;8.10;;;;;;;13.79;100.00;97696.47;5344933;26;20004;-65
2024/04/20 08:32:02;;;;;;;73.75;10.75;;;;;;;13.97;100.00;97696.97;5335848;26;20004;-60
2024/04/20 08:34:28;;;;;;;43.75;8.63;;;;;;;14.05;100.00;97695.94;5336155;26;20000;-61
2024/04/20 08:36:53;;;;;;;40.67;8.05;;;;;;;14.39;97.91;97703.88;5339525;26;20011;-63
2024/04/20 08:39:18;;;;;;;44.38;8.50;;;;;;;13.69;87.79;97700.19;5336011;26;20005;-60
2024/04/20 08:42:05;;;;;;;44.40;9.52;;;;;;;12.92;95.50;97708.56;5344443;26;20103;-59
2024/04/20 08:44:30;;;;;;;58.90;8.52;;;;;;;13.69;100.00;97705.41;5341871;26;20000;-60
2024/04/20 08:46:56;;;;;;;51.25;22.45;;;;;;;13.60;92.80;97703.84;5340710;26;20242;-60
2024/04/20 08:49:25;;;;;;;29.65;7.47;;;;;;;13.26;99.66;97708.78;5342302;26;20391;-60
2024/04/20 08:51:53;;;;;;;48.75;9.43;;;;;;;13.85;100.00;97717.25;5335938;26;20053;-61
2024/04/20 08:54:18;;;;;;;47.95;8.55;;;;;;;14.91;100.00;97724.47;5335957;26;20266;-60
2024/04/20 08:56:44;;;;;;;50.60;8.93;;;;;;;15.45;92.09;97720.44;5337745;26;20016;-60
2024/04/20 08:59:10;;;;;;;87.47;11.43;;;;;;;15.06;90.40;97729.34;5335763;26;20036;-59
2024/04/20 09:01:36;;;;;;;50.35;8.52;;;;;;;13.92;90.49;97737.16;5337710;26;20012;-62
2024/04/20 09:04:03;;;;;;;74.60;9.43;;;;;;;13.53;95.23;97739.69;5341118;26;20018;-62
2024/04/20 09:06:29;;;;;;;66.20;9.65;;;;;;;12.63;100.00;97750.75;5336984;26;20000;-59
2024/04/20 09:08:58;;;;;;;51.20;8.82;;;;;;;11.80;100.00;97750.97;5365586;26;20023;-63
2024/04/20 09:11:23;;;;;;;35.05;7.93;;;;;;;13.14;100.00;97759.50;5366230;26;20423;-63
2024/04/20 09:13:49;;;;;;;45.72;9.70;;;;;;;14.63;91.62;97765.28;5340443;26;20457;-63
2024/04/20 09:16:15;;;;;;;68.72;10.15;;;;;;;15.51;87.60;97771.84;5336890;26;20639;-61
2024/04/20 09:18:40;;;;;;;36.10;8.38;;;;;;;15.94;79.81;97772.44;5340181;26;20166;-63
2024/04/20 09:21:07;;;;;;;76.07;9.75;;;;;;;17.13;71.07;97767.06;5336403;26;20071;-61
2024/04/20 09:23:32;;;;;;;34.15;6.85;;;;;;;15.75;63.12;97772.06;5340833;26;20469;-62
2024/04/20 09:25:59;;;;;;;40.67;7.88;;;;;;;16.01;70.01;97773.97;5342745;26;20070;-61
2024/04/20 09:28:27;;;;;;;63.47;8.77;;;;;;;16.96;63.90;97775.47;5338612;26;20712;-63
2024/04/20 09:30:54;;;;;;;38.72;7.05;;;;;;;17.56;63.11;97777.03;5366141;26;20015;-64
2024/04/20 09:33:20;;;;;;;53.60;7.95;;;;;;;16.21;60.10;97780.41;5338198;26;20000;-60
2024/04/20 09:35:46;;;;;;;50.33;7.88;;;;;;;17.28;55.09;97780.59;5337062;26;20563;-63
2024/04/20 09:38:11;;;;;;;69.75;9.05;;;;;;;16.94;59.96;97782.56;5336002;26;19997;-61
2024/04/20 09:40:37;;;;;;;32.88;8.43;;;;;;;16.12;59.21;97785.94;5337630;26;20015;-60
2024/04/20 09:43:02;;;;;;;60.78;8.70;;;;;;;16.67;66.22;97793.06;5335199;26;20008;-62
2024/04/20 09:45:29;;;;;;;26.13;5.85;;;;;;;16.99;60.58;97788.53;5335678;26;20021;-61
2024/04/20 09:47:56;;;;;;;37.50;10.32;;;;;;;16.58;63.14;97786.31;5339314;26;20019;-61
2024/04/20 09:50:25;;;;;;;66.18;8.68;;;;;;;17.01;65.28;97791.97;5336922;26;20013;-60
2024/04/20 09:52:59;;;;;;;77.10;9.18;;;;;;;16.94;64.67;97787.81;5338583;26;20082;-61
2024/04/20 09:55:27;;;;;;;35.25;6.35;;;;;;;16.13;64.55;97798.13;5337667;26;20023;-62
2024/04/20 09:57:54;;;;;;;35.38;6.72;;;;;;;16.79;58.37;97800.50;5341420;26;20000;-61
2024/04/20 10:00:20;;;;;;;44.15;7.15;;;;;;;16.57;61.66;97808.22;5339092;26;20015;-62
2024/04/20 10:02:47;;;;;;;59.53;8.07;;;;;;;16.56;58.36;97806.50;5341121;26;20066;-60
2024/04/20 10:05:14;;;;;;;99.97;22.20;;;;;;;16.36;62.60;97810.59;5341052;26;20086;-59
2024/04/20 10:07:40;;;;;;;59.67;17.25;;;;;;;16.07;66.23;97814.06;5334203;26;20090;-62
2024/04/20 10:10:06;;;;;;;73.40;9.20;;;;;;;16.77;64.46;97811.97;5334373;26;20020;-61
2024/04/20 10:12:31;;;;;;;46.20;7.05;;;;;;;15.83;60.18;97819.06;5336873;26;20473;-59
2024/04/20 10:14:57;;;;;;;38.63;6.45;;;;;;;16.42;63.76;97814.78;5333984;26;20011;-62
2024/04/20 10:17:25;;;;;;;59.15;7.60;;;;;;;17.04;62.53;97818.16;5334091;26;20051;-63
2024/04/20 10:19:52;;;;;;;36.45;6.03;;;;;;;17.00;58.39;97821.75;5340949;26;20371;-59
2024/04/20 10:22:20;;;;;;;61.80;7.72;;;;;;;15.51;63.16;97832.09;5333275;26;20340;-62
2024/04/20 10:24:58;;;;;;;60.17;7.82;;;;;;;16.33;65.97;97825.56;5334868;26;20000;-60
2024/04/20 10:27:30;;;;;;;43.13;6.50;;;;;;;16.69;57.56;97827.09;5334806;26;20807;-61
2024/04/20 10:30:20;;;;;;;37.38;6.30;;;;;;;16.56;65.29;97830.13;5337368;26;20001;-63
2024/04/20 10:32:46;;;;;;;55.38;7.80;;;;;;;14.38;60.59;97838.22;5362574;26;20013;-62
2024/04/20 10:35:19;;;;;;;69.22;8.52;;;;;;;15.74;67.41;97835.91;5338750;26;20389;-64
2024/04/20 10:37:45;;;;;;;56.50;7.53;;;;;;;14.82;71.34;97832.94;5346685;26;20012;-62
2024/04/20 10:40:14;;;;;;;83.70;9.65;;;;;;;15.33;65.19;97834.31;5336348;26;20004;-59
2024/04/20 10:42:43;;;;;;;55.92;7.93;;;;;;;17.72;54.71;97827.31;5336329;26;20367;-63
2024/04/20 10:45:12;;;;;;;77.05;14.35;;;;;;;17.16;50.74;97826.56;5335854;26;20011;-63
2024/04/20 10:47:38;;;;;;;43.10;15.48;;;;;;;15.85;54.79;97825.13;5338668;26;20015;-63
2024/04/20 10:50:08;;;;;;;51.85;7.10;;;;;;;15.57;54.40;97828.47;5335651;26;20036;-61
2024/04/20 10:52:33;;;;;;;36.35;6.18;;;;;;;17.33;59.61;97825.13;5335358;26;20469;-60
2024/04/20 10:54:58;;;;;;;45.97;13.55;;;;;;;15.81;56.05;97833.97;5339288;26;20000;-60
2024/04/20 10:57:28;;;;;;;59.33;7.10;;;;;;;15.18;56.30;97846.03;5335376;26;20307;-63
2024/04/20 10:59:53;;;;;;;48.90;7.30;;;;;;;14.54;73.22;97867.50;5339526;26;19997;-60
2024/04/20 11:02:19;;;;;;;78.85;8.65;;;;;;;13.60;83.31;97865.84;5330497;26;20008;-64
2024/04/20 11:04:45;;;;;;;53.20;6.63;;;;;;;13.44;82.22;97870.44;5334991;26;20008;-61
2024/04/20 11:07:10;;;;;;;80.65;9.60;;;;;;;11.06;97.76;97891.44;5334845;26;20001;-62
2024/04/20 11:09:35;;;;;;;51.72;7.72;;;;;;;9.94;100.00;97897.09;5338855;26;20653;-64
2024/04/20 11:12:03;;;;;;;48.97;8.57;;;;;;;9.56;100.00;97892.84;5337883;26;20775;-63